createdAt,value
2018-06-15T00:00:12.640Z,16.20
2018-06-15T00:02:41.129Z,16.20
2018-06-15T00:07:37.708Z,16.20
2018-06-15T00:10:06.184Z,16.30
2018-06-15T00:12:34.580Z,16.30
2018-06-15T00:15:03.039Z,16.30
2018-06-15T00:17:31.441Z,16.30
2018-06-15T00:19:59.875Z,16.30
2018-06-15T00:22:28.292Z,16.30
2018-06-15T00:24:56.720Z,16.30
2018-06-15T00:29:53.237Z,16.20
2018-06-15T00:32:21.640Z,16.20
2018-06-15T00:34:50.064Z,16.20
2018-06-15T00:37:18.476Z,16.20
2018-06-15T00:39:46.909Z,16.20
2018-06-15T00:42:15.338Z,16.20
2018-06-15T00:44:43.741Z,16.10
2018-06-15T00:49:40.315Z,16.20
2018-06-15T00:52:08.721Z,16.10
2018-06-15T00:54:37.153Z,16.10
2018-06-15T00:57:16.673Z,16.10
2018-06-15T00:59:45.105Z,16.10
2018-06-15T01:02:13.525Z,16.00
2018-06-15T01:04:41.981Z,16.10
2018-06-15T01:07:10.454Z,16.10
2018-06-15T01:09:38.876Z,16.10
2018-06-15T01:14:35.501Z,16.00
2018-06-15T01:17:03.944Z,16.00
2018-06-15T01:19:32.557Z,16.00
2018-06-15T01:22:00.984Z,16.00
2018-06-15T01:24:29.396Z,16.00
2018-06-15T01:26:57.941Z,16.00
2018-06-15T01:29:26.431Z,16.00
2018-06-15T01:31:54.848Z,16.00
2018-06-15T01:34:23.263Z,16.00
2018-06-15T01:36:51.726Z,16.10
2018-06-15T01:39:20.229Z,16.10
2018-06-15T01:41:48.656Z,16.10
2018-06-15T01:44:17.075Z,16.10
2018-06-15T01:49:13.592Z,16.00
2018-06-15T01:51:42.020Z,15.90
2018-06-15T01:54:10.454Z,15.90
2018-06-15T01:56:38.876Z,15.90
2018-06-15T01:59:08.285Z,16.00
2018-06-15T02:01:36.716Z,15.90
2018-06-15T02:04:05.121Z,15.90
2018-06-15T02:06:33.565Z,15.90
2018-06-15T02:09:02.003Z,16.00
2018-06-15T02:11:30.740Z,16.00
2018-06-15T02:13:59.201Z,16.00
2018-06-15T02:16:27.612Z,15.90
2018-06-15T02:21:24.152Z,15.90
2018-06-15T02:23:52.589Z,15.90
2018-06-15T02:26:21.063Z,15.90
2018-06-15T02:28:49.480Z,16.00
2018-06-15T02:31:17.932Z,16.00
2018-06-15T02:33:46.370Z,16.00
2018-06-15T02:36:14.776Z,16.10
2018-06-15T02:38:43.224Z,16.10
2018-06-15T02:41:11.640Z,16.00
2018-06-15T02:43:40.076Z,16.10
2018-06-15T02:46:08.496Z,16.10
2018-06-15T02:48:36.942Z,16.10
2018-06-15T02:51:05.395Z,16.10
2018-06-15T02:56:01.976Z,16.00
2018-06-15T02:58:30.396Z,16.00
2018-06-15T03:00:58.841Z,16.10
2018-06-15T03:03:27.249Z,16.10
2018-06-15T03:05:55.692Z,16.10
2018-06-15T03:08:24.118Z,16.10
2018-06-15T03:10:52.557Z,16.10
2018-06-15T03:13:20.952Z,16.10
2018-06-15T03:15:49.386Z,16.10
2018-06-15T03:18:17.793Z,16.10
2018-06-15T03:20:46.219Z,16.10
2018-06-15T03:23:14.629Z,16.10
2018-06-15T03:25:43.053Z,16.10
2018-06-15T03:28:11.464Z,16.10
2018-06-15T03:33:08.006Z,16.00
2018-06-15T03:35:36.464Z,16.00
2018-06-15T03:38:05.076Z,16.10
2018-06-15T03:40:33.504Z,16.00
2018-06-15T03:43:01.949Z,16.10
2018-06-15T03:45:30.356Z,16.00
2018-06-15T03:47:58.781Z,16.00
2018-06-15T03:52:55.641Z,16.10
2018-06-15T03:57:52.177Z,16.10
2018-06-15T04:00:20.617Z,16.10
2018-06-15T04:02:49.313Z,16.20
2018-06-15T04:05:17.784Z,16.20
2018-06-15T04:07:46.301Z,16.20
2018-06-15T04:10:14.696Z,16.30
2018-06-15T04:12:43.160Z,16.30
2018-06-15T04:15:11.578Z,16.40
2018-06-15T04:17:40.216Z,16.40
2018-06-15T04:20:08.658Z,16.50
2018-06-15T04:22:37.088Z,16.50
2018-06-15T04:27:33.637Z,16.60
2018-06-15T04:30:02.064Z,16.60
2018-06-15T04:32:30.496Z,16.70
2018-06-15T04:37:27.063Z,16.70
2018-06-15T04:39:55.477Z,16.90
2018-06-15T04:42:23.908Z,16.90
2018-06-15T04:44:52.341Z,16.90
2018-06-15T04:47:20.777Z,17.00
2018-06-15T04:49:49.188Z,17.00
2018-06-15T04:52:17.612Z,17.10
2018-06-15T04:57:14.164Z,17.10
2018-06-15T04:59:42.588Z,17.20
2018-06-15T05:02:11.001Z,17.30
2018-06-15T05:04:39.412Z,17.40
2018-06-15T05:07:07.837Z,17.60
2018-06-15T05:09:36.277Z,17.60
2018-06-15T05:12:04.712Z,17.70
2018-06-15T05:14:33.136Z,17.70
2018-06-15T05:17:01.557Z,17.70
2018-06-15T05:19:30.081Z,17.80
2018-06-15T05:21:58.517Z,17.90
2018-06-15T05:24:26.940Z,18.00
2018-06-15T05:26:55.349Z,18.00
2018-06-15T05:29:23.824Z,18.10
2018-06-15T05:31:52.233Z,18.30
2018-06-15T05:34:20.672Z,18.30
2018-06-15T05:36:49.091Z,18.30
2018-06-15T05:39:17.533Z,18.40
2018-06-15T05:41:45.953Z,18.30
2018-06-15T05:44:14.385Z,18.30
2018-06-15T05:46:42.802Z,18.30
2018-06-15T05:49:11.254Z,18.30
2018-06-15T05:51:39.680Z,18.10
2018-06-15T05:56:36.272Z,18.30
2018-06-15T05:59:04.784Z,18.30
2018-06-15T06:01:33.237Z,18.30
2018-06-15T06:04:01.758Z,18.50
2018-06-15T06:06:30.108Z,18.70
2018-06-15T06:08:58.529Z,18.90
2018-06-15T06:11:26.981Z,19.00
2018-06-15T06:13:55.394Z,19.10
2018-06-15T06:16:23.837Z,19.20
2018-06-15T06:18:52.470Z,19.40
2018-06-15T06:21:20.921Z,19.40
2018-06-15T06:23:49.376Z,19.50
2018-06-15T06:26:17.808Z,19.70
2018-06-15T06:28:46.213Z,19.90
2018-06-15T06:31:14.641Z,20.10
2018-06-15T06:33:43.069Z,21.00
2018-06-15T06:36:11.600Z,21.90
2018-06-15T06:38:40.022Z,22.40
2018-06-15T06:41:08.461Z,22.50
2018-06-15T06:43:36.881Z,22.00
2018-06-15T06:46:05.341Z,21.70
2018-06-15T06:48:33.768Z,21.50
2018-06-15T06:51:02.204Z,22.00
2018-06-15T06:53:30.642Z,22.10
2018-06-15T06:58:27.222Z,22.80
2018-06-15T07:00:55.606Z,22.90
2018-06-15T07:03:24.025Z,23.00
2018-06-15T07:05:52.445Z,22.80
2018-06-15T07:08:20.909Z,22.30
2018-06-15T07:10:49.321Z,21.70
2018-06-15T07:13:17.852Z,21.50
2018-06-15T07:15:46.344Z,21.40
2018-06-15T07:18:14.789Z,21.20
2018-06-15T07:20:43.209Z,21.30
2018-06-15T07:23:11.664Z,21.00
2018-06-15T07:25:40.103Z,21.30
2018-06-15T07:28:08.524Z,21.40
2018-06-15T07:33:05.313Z,23.10
2018-06-15T07:35:33.745Z,24.00
2018-06-15T07:38:02.152Z,24.30
2018-06-15T07:40:30.592Z,23.90
2018-06-15T07:47:55.249Z,23.10
2018-06-15T07:52:52.081Z,23.80
2018-06-15T07:55:20.512Z,23.80
2018-06-15T07:57:49.216Z,24.40
2018-06-15T08:00:17.635Z,24.90
2018-06-15T08:05:14.168Z,26.60
2018-06-15T08:07:42.621Z,27.30
2018-06-15T08:10:11.089Z,28.30
2018-06-15T08:12:39.540Z,29.20
2018-06-15T08:15:08.009Z,29.80
2018-06-15T08:20:04.661Z,28.90
2018-06-15T08:22:33.142Z,28.30
2018-06-15T08:27:29.673Z,27.70
2018-06-15T08:29:58.193Z,27.20
2018-06-15T08:32:26.646Z,27.00
2018-06-15T08:34:55.057Z,25.90
2018-06-15T08:37:23.485Z,25.40
2018-06-15T08:39:51.930Z,25.70
2018-06-15T08:42:20.364Z,26.80
2018-06-15T08:44:48.785Z,26.90
2018-06-15T08:47:17.199Z,26.80
2018-06-15T08:49:45.690Z,26.30
2018-06-15T08:52:14.121Z,25.50
2018-06-15T08:54:42.558Z,25.40
2018-06-15T08:57:10.972Z,24.40
2018-06-15T08:59:39.410Z,24.10
2018-06-15T09:02:07.825Z,23.90
2018-06-15T09:04:36.257Z,23.70
2018-06-15T09:07:04.971Z,23.90
2018-06-15T09:09:33.405Z,23.80
2018-06-15T09:12:01.857Z,22.80
2018-06-15T09:14:30.302Z,22.30
2018-06-15T09:16:58.712Z,22.10
2018-06-15T09:19:27.300Z,22.40
2018-06-15T09:21:55.737Z,22.20
2018-06-15T09:24:24.153Z,22.20
2018-06-15T09:26:52.600Z,21.70
2018-06-15T09:29:21.029Z,21.70
2018-06-15T09:31:49.465Z,21.90
2018-06-15T09:34:17.876Z,22.20
2018-06-15T09:36:46.305Z,22.90
2018-06-15T09:39:14.737Z,24.70
2018-06-15T09:41:43.189Z,26.60
2018-06-15T09:44:11.589Z,28.60
2018-06-15T09:46:40.033Z,28.60
2018-06-15T09:49:08.437Z,27.70
2018-06-15T09:51:36.893Z,27.00
2018-06-15T09:54:05.345Z,26.10
2018-06-15T09:56:33.923Z,25.10
2018-06-15T09:59:02.356Z,24.80
2018-06-15T10:01:30.873Z,24.50
2018-06-15T10:03:59.373Z,24.30
2018-06-15T10:06:27.809Z,24.30
2018-06-15T10:08:56.229Z,24.10
2018-06-15T10:11:24.640Z,24.80
2018-06-15T10:13:53.082Z,26.40
2018-06-15T10:16:21.489Z,27.30
2018-06-15T10:18:49.921Z,28.30
2018-06-15T10:23:46.502Z,29.90
2018-06-15T10:26:14.944Z,30.60
2018-06-15T10:31:11.473Z,32.30
2018-06-15T10:33:39.914Z,31.40
2018-06-15T10:36:08.326Z,30.10
2018-06-15T10:38:36.753Z,28.70
2018-06-15T10:41:05.208Z,28.70
2018-06-15T10:46:01.733Z,29.60
2018-06-15T10:48:30.157Z,29.90
2018-06-15T10:50:58.557Z,30.10
2018-06-15T10:53:26.980Z,29.90
2018-06-15T10:55:55.378Z,30.60
2018-06-15T11:00:52.793Z,30.70
2018-06-15T11:03:21.228Z,30.40
2018-06-15T11:08:17.783Z,29.90
2018-06-15T11:10:47.060Z,30.90
2018-06-15T11:15:43.608Z,29.90
2018-06-15T11:20:40.173Z,29.90
2018-06-15T11:23:08.595Z,30.20
2018-06-15T11:25:37.023Z,30.50
2018-06-15T11:30:33.553Z,30.40
2018-06-15T11:33:01.971Z,30.30
2018-06-15T11:35:30.421Z,30.00
2018-06-15T11:40:26.941Z,30.50
2018-06-15T11:42:55.353Z,30.90
2018-06-15T11:47:51.895Z,28.70
2018-06-15T11:52:48.409Z,26.70
2018-06-15T11:55:16.896Z,26.40
2018-06-15T11:57:45.315Z,26.50
2018-06-15T12:00:13.730Z,26.80
2018-06-15T12:02:42.170Z,27.00
2018-06-15T12:05:10.581Z,27.80
2018-06-15T12:07:39.057Z,28.50
2018-06-15T12:10:07.470Z,27.10
2018-06-15T12:12:35.888Z,26.10
2018-06-15T12:15:04.372Z,26.20
2018-06-15T12:17:32.810Z,27.70
2018-06-15T12:20:01.300Z,28.60
2018-06-15T12:24:57.865Z,28.50
2018-06-15T12:27:26.288Z,27.90
2018-06-15T12:29:54.704Z,28.10
2018-06-15T12:32:23.278Z,29.10
2018-06-15T12:34:51.721Z,29.10
2018-06-15T12:37:20.147Z,28.60
2018-06-15T12:42:16.673Z,27.70
2018-06-15T12:44:45.097Z,27.40
2018-06-15T12:47:13.525Z,27.00
2018-06-15T12:49:41.933Z,27.60
2018-06-15T12:54:38.533Z,27.70
2018-06-15T12:57:07.147Z,27.80
2018-06-15T12:59:35.532Z,27.60
2018-06-15T13:02:03.988Z,27.20
2018-06-15T13:04:32.412Z,27.70
2018-06-15T13:07:00.831Z,27.50
2018-06-15T13:09:29.269Z,26.80
2018-06-15T13:11:57.771Z,27.00
2018-06-15T13:14:26.285Z,27.20
2018-06-15T13:16:54.690Z,26.90
2018-06-15T13:19:23.116Z,27.20
2018-06-15T13:21:51.595Z,27.50
2018-06-15T13:24:20.057Z,27.60
2018-06-15T13:26:48.485Z,27.40
2018-06-15T13:29:17.193Z,27.40
2018-06-15T13:31:45.661Z,27.20
2018-06-15T13:34:14.137Z,27.10
2018-06-15T13:39:12.417Z,27.30
2018-06-15T13:41:40.881Z,27.60
2018-06-15T13:44:09.309Z,27.40
2018-06-15T13:46:37.840Z,27.40
2018-06-15T13:49:06.302Z,27.40
2018-06-15T13:51:34.770Z,27.40
2018-06-15T13:54:03.364Z,27.30
2018-06-15T13:56:31.865Z,27.60
2018-06-15T13:59:00.318Z,28.20
2018-06-15T14:01:28.785Z,28.50
2018-06-15T14:03:57.273Z,28.50
2018-06-15T14:06:25.738Z,28.10
2018-06-15T14:08:54.273Z,27.70
2018-06-15T14:11:22.736Z,27.80
2018-06-15T14:13:51.217Z,27.50
2018-06-15T14:16:19.693Z,27.20
2018-06-15T14:18:48.238Z,26.50
2018-06-15T14:21:16.728Z,26.40
2018-06-15T14:23:45.172Z,27.10
2018-06-15T14:28:42.356Z,28.00
2018-06-15T14:31:10.794Z,28.10
2018-06-15T14:33:39.270Z,28.30
2018-06-15T14:36:07.972Z,27.70
2018-06-15T14:38:36.444Z,27.60
2018-06-15T14:41:04.941Z,27.90
2018-06-15T14:43:33.424Z,27.50
2018-06-15T14:48:29.964Z,27.10
2018-06-15T14:50:58.374Z,27.10
2018-06-15T14:53:26.807Z,27.30
2018-06-15T14:55:55.225Z,27.10
2018-06-15T14:58:23.711Z,27.30
2018-06-15T15:03:20.199Z,27.40
2018-06-15T15:05:48.629Z,27.90
2018-06-15T15:08:17.052Z,28.00
2018-06-15T15:10:45.496Z,28.30
2018-06-15T15:13:13.900Z,28.40
2018-06-15T15:15:42.337Z,28.40
2018-06-15T15:18:10.800Z,28.40
2018-06-15T15:20:39.220Z,28.80
2018-06-15T15:23:07.688Z,28.90
2018-06-15T15:25:36.113Z,28.60
2018-06-15T15:28:04.629Z,28.50
2018-06-15T15:30:33.049Z,28.60
2018-06-15T15:33:01.465Z,28.40
2018-06-15T15:37:57.995Z,28.10
2018-06-15T15:40:26.448Z,27.80
2018-06-15T15:42:54.865Z,27.60
2018-06-15T15:45:23.282Z,27.00
2018-06-15T15:47:51.705Z,27.00
2018-06-15T15:50:20.152Z,27.00
2018-06-15T15:52:48.574Z,27.20
2018-06-15T15:55:17.017Z,27.10
2018-06-15T15:57:45.635Z,27.10
2018-06-15T16:00:14.065Z,27.00
2018-06-15T16:02:42.489Z,27.00
2018-06-15T16:05:10.941Z,27.10
2018-06-15T16:07:39.383Z,27.10
2018-06-15T16:10:07.850Z,27.10
2018-06-15T16:12:36.355Z,26.90
2018-06-15T16:15:04.820Z,26.70
2018-06-15T16:17:33.289Z,26.60
2018-06-15T16:20:08.307Z,26.60
2018-06-15T16:22:36.687Z,26.50
2018-06-15T16:25:05.156Z,26.30
2018-06-15T16:27:33.580Z,26.30
2018-06-15T16:30:02.006Z,26.20
2018-06-15T16:32:30.437Z,26.20
2018-06-15T16:34:58.866Z,26.10
2018-06-15T16:37:27.306Z,26.10
2018-06-15T16:39:55.766Z,26.00
2018-06-15T16:42:24.189Z,26.20
2018-06-15T16:44:52.636Z,26.20
2018-06-15T16:47:21.069Z,26.10
2018-06-15T16:49:49.488Z,25.80
2018-06-15T16:52:17.908Z,25.70
2018-06-15T16:54:46.369Z,25.70
2018-06-15T16:57:14.814Z,25.60
2018-06-15T16:59:43.220Z,25.60
2018-06-15T17:02:11.648Z,25.60
2018-06-15T17:04:40.051Z,25.70
2018-06-15T17:07:08.485Z,25.60
2018-06-15T17:09:36.893Z,25.60
2018-06-15T17:12:05.350Z,25.50
2018-06-15T17:14:33.765Z,25.40
2018-06-15T17:17:02.225Z,25.30
2018-06-15T17:19:30.660Z,25.30
2018-06-15T17:21:59.089Z,25.40
2018-06-15T17:24:27.497Z,25.40
2018-06-15T17:26:55.929Z,25.50
2018-06-15T17:29:24.343Z,25.50
2018-06-15T17:31:52.800Z,25.50
2018-06-15T17:34:21.212Z,25.40
2018-06-15T17:36:49.645Z,25.30
2018-06-15T17:39:18.168Z,25.30
2018-06-15T17:41:46.736Z,25.10
2018-06-15T17:44:15.167Z,25.00
2018-06-15T17:46:43.631Z,25.00
2018-06-15T17:49:12.118Z,24.90
2018-06-15T17:51:40.593Z,24.90
2018-06-15T17:54:09.052Z,24.90
2018-06-15T17:56:37.562Z,24.80
2018-06-15T17:59:06.004Z,24.80
2018-06-15T18:01:34.425Z,24.80
2018-06-15T18:06:31.007Z,24.60
2018-06-15T18:08:59.518Z,24.60
2018-06-15T18:11:27.900Z,24.60
2018-06-15T18:13:57.435Z,24.50
2018-06-15T18:16:25.935Z,24.40
2018-06-15T18:18:54.440Z,24.40
2018-06-15T18:21:22.889Z,24.30
2018-06-15T18:23:51.348Z,24.20
2018-06-15T18:26:19.792Z,24.10
2018-06-15T18:28:48.251Z,24.00
2018-06-15T18:31:17.108Z,23.90
2018-06-15T18:33:45.542Z,23.80
2018-06-15T18:36:14.084Z,23.80
2018-06-15T18:38:42.624Z,23.70
2018-06-15T18:41:11.100Z,23.60
2018-06-15T18:43:39.540Z,23.60
2018-06-15T18:46:08.045Z,23.60
2018-06-15T18:48:36.495Z,23.50
2018-06-15T18:51:04.996Z,23.50
2018-06-15T18:53:33.496Z,23.50
2018-06-15T18:56:01.978Z,23.40
2018-06-15T18:58:30.434Z,23.40
2018-06-15T19:00:58.933Z,23.30
2018-06-15T19:03:27.389Z,23.30
2018-06-15T19:05:56.077Z,23.40
2018-06-15T19:08:24.556Z,23.30
2018-06-15T19:10:52.985Z,23.30
2018-06-15T19:13:21.553Z,23.30
2018-06-15T19:15:50.061Z,23.30
2018-06-15T19:18:18.529Z,23.30
2018-06-15T19:20:46.988Z,23.20
2018-06-15T19:25:43.663Z,23.10
2018-06-15T19:28:12.084Z,23.10
2018-06-15T19:30:40.625Z,23.10
2018-06-15T19:33:09.168Z,23.00
2018-06-15T19:35:37.640Z,23.00
2018-06-15T19:38:06.076Z,22.90
2018-06-15T19:40:34.913Z,22.90
2018-06-15T19:43:03.388Z,22.80
2018-06-15T19:45:31.897Z,22.80
2018-06-15T19:50:28.504Z,22.70
2018-06-15T19:52:56.951Z,22.60
2018-06-15T19:55:25.396Z,22.60
2018-06-15T19:57:53.889Z,22.60
2018-06-15T20:02:51.616Z,22.50
2018-06-15T20:05:20.162Z,22.50
2018-06-15T20:07:48.631Z,22.50
2018-06-15T20:10:17.069Z,22.40
2018-06-15T20:12:45.549Z,22.40
2018-06-15T20:15:14.337Z,22.20
2018-06-15T20:17:42.781Z,22.10
2018-06-15T20:20:11.541Z,22.00
2018-06-15T20:22:40.330Z,21.90
2018-06-15T20:25:08.765Z,21.80
2018-06-15T20:27:37.217Z,21.70
2018-06-15T20:30:06.052Z,21.60
2018-06-15T20:32:34.529Z,21.50
2018-06-15T20:35:02.989Z,21.50
2018-06-15T20:37:31.470Z,21.40
2018-06-15T20:39:59.924Z,21.20
2018-06-15T20:42:28.396Z,21.20
2018-06-15T20:44:56.844Z,21.10
2018-06-15T20:49:53.560Z,21.10
2018-06-15T20:52:22.017Z,21.00
2018-06-15T20:54:50.476Z,20.90
2018-06-15T20:57:18.923Z,20.90
2018-06-15T21:02:15.527Z,20.80
2018-06-15T21:04:44.029Z,20.70
2018-06-15T21:07:12.453Z,20.70
2018-06-15T21:09:40.985Z,20.60
2018-06-15T21:12:09.419Z,20.60
2018-06-15T21:14:37.876Z,20.60
2018-06-15T21:19:34.417Z,20.50
2018-06-15T21:22:02.817Z,20.50
2018-06-15T21:24:31.318Z,20.60
2018-06-15T21:26:59.772Z,20.60
2018-06-15T21:29:28.245Z,20.60
2018-06-15T21:34:24.748Z,20.60
2018-06-15T21:36:53.193Z,20.60
2018-06-15T21:39:21.600Z,20.50
2018-06-15T21:41:50.069Z,20.50
2018-06-15T21:44:18.512Z,20.50
2018-06-15T21:46:46.942Z,20.50
2018-06-15T21:49:15.379Z,20.40
2018-06-15T21:51:43.820Z,20.40
2018-06-15T21:54:12.229Z,20.50
2018-06-15T21:56:40.665Z,20.50
2018-06-15T21:59:09.226Z,20.50
2018-06-15T22:01:37.846Z,20.50
2018-06-15T22:04:06.301Z,20.50
2018-06-15T22:06:34.744Z,20.50
2018-06-15T22:09:03.569Z,20.40
2018-06-15T22:11:31.977Z,20.40
2018-06-15T22:16:32.733Z,20.40
2018-06-15T22:19:01.157Z,20.40
2018-06-15T22:21:29.592Z,20.50
2018-06-15T22:23:59.072Z,20.40
2018-06-15T22:26:27.485Z,20.50
2018-06-15T22:28:55.945Z,20.40
2018-06-15T22:31:24.349Z,20.40
2018-06-15T22:33:52.821Z,20.40
2018-06-15T22:36:21.505Z,20.30
2018-06-15T22:38:49.925Z,20.30
2018-06-15T22:41:18.420Z,20.30
2018-06-15T22:43:47.252Z,20.30
2018-06-15T22:46:15.636Z,20.30
2018-06-15T22:48:44.073Z,20.30
2018-06-15T22:53:40.615Z,20.30
2018-06-15T22:56:09.037Z,20.40
2018-06-15T22:58:37.448Z,20.40
2018-06-15T23:01:05.957Z,20.50
2018-06-15T23:03:34.388Z,20.50
2018-06-15T23:06:02.812Z,20.50
2018-06-15T23:10:59.449Z,20.50
2018-06-15T23:13:27.882Z,20.50
2018-06-15T23:15:56.306Z,20.40
2018-06-15T23:18:24.757Z,20.50
2018-06-15T23:20:53.975Z,20.40
2018-06-15T23:23:22.498Z,20.40
2018-06-15T23:25:51.121Z,20.30
2018-06-15T23:28:19.557Z,20.30
2018-06-15T23:30:47.988Z,20.20
2018-06-15T23:33:16.408Z,20.10
2018-06-15T23:35:44.806Z,20.00
2018-06-15T23:38:13.218Z,19.80
2018-06-15T23:40:41.645Z,19.60
2018-06-15T23:43:10.064Z,19.40
2018-06-15T23:45:38.513Z,19.20
2018-06-15T23:48:06.957Z,19.10
2018-06-15T23:50:35.387Z,19.10
2018-06-15T23:53:03.796Z,19.00
2018-06-15T23:55:32.257Z,18.90
2018-06-15T23:58:00.693Z,18.80
